Airfield :
LOGIN :

Register | Disclaimer

   EN    FR    IT 

 










Legend :    VFR   Marginal VFR   IFR   Intensive IFR   Very Intensive IFR
Visi :
Ceiling :
>= 8 km
>= 3000ft
5 to 8 km
1000 to 3000 ft
1500m to 5 km
500 to 1000 ft
800 to 1500m
200 to 500 ft
< 800m
< 200 ft
Symbols :   Thunderstorms  Fog  Heavy snow  Heavy precipitations  Wind > 20 kt
SIGMETs :     Misc.  Thunderstorms  Icing  Turbulence  Mountain Waves  Volcanic Ashes






- Airport Elevation : 10 ft
- IATA code : AAL


EKYT - Aalborg

CURRENT METAR :
  • 171520Z 23028KT 5000 -SHRA SCT019CB BKN030 07/05 Q0994

EXPIRED METARs :
  • 171513Z 24028KT 5000 -SHRA SCT019CB BKN030 07/05 Q0994
  • 171506Z AUTO 24027KT 7000 -SHRA FEW019/// SCT027/// BKN038/// BKN043/// 07/05 Q0994
  • 171450Z AUTO 23029KT 8000 -SHRA FEW017/// BKN022/// BKN032/// 07/05 Q0994
  • 171423Z AUTO 23028G39KT 6000 -SHRA FEW017/// BKN023/// BKN034/// 07/05 Q0994
  • 171350Z 23029G40KT 9999 -SHRA SCT019CB BKN024 07/04 Q0993
  • 171320Z 24028KT 5000 SHRA SCT019CB BKN024 BKN031 07/04 Q0993
  • 171250Z 23029G39KT 8000 -SHRA FEW020CB SCT024 BKN030 07/04 Q0993

TAF TAF EKYT
Valid from the 17 at 15:00 until the 18 at 15:00 UTC


171411Z 1715/1815 23025G35KT 9999 BKN030
TEMPO 1715/1719 24030G42KT 4000 -SHRA SCT015CB
BECMG 1721/1723 24018G28KT
TEMPO 1807/1809 4000 SHRA BKN020CB
TEMPO 1809/1815 23022G35KT 6000 -SHRA BKN020TCU



MET'MAP, your aeronautical weather chart ! - Copyright ORBIFLY December 2007 - Disclaimer

ORBIFLY MET'MAP TEAM :

Programming & Development : Alexandra Zaïnal
Concept & original design : Baudouin d'Aumeries
Assistance for programming : Marc-Olivier Méhu
Technical & hardware support : Manuel Goepfert

Contact : metmap@orbifly.com




SOURCES & CREDITS :

   NOAA